Time;durP1;ratioP1;P1;durP2;ratioP2;P2;SDS_P1;SDS_P2;PMS_P1;PMS_P2;Temp;Humidity;BMP_temperature;BMP_pressure;BME280_temperature;BME280_humidity;BME280_pressure;Samples;Min_cycle;Max_cycle;Signal;HPM_P1;HPM_P2
2021/09/27 00:02:22;;;;;;;7.50;5.10;;;486.80;2380.80;;;;;;5091371;28;20073;-77
2021/09/27 00:04:48;;;;;;;10.18;6.68;;;486.80;2380.80;;;;;;5091476;28;20048;-77
2021/09/27 00:07:13;;;;;;;9.85;6.60;;;486.70;2380.80;;;;;;5073252;28;20141;-76
2021/09/27 00:09:39;;;;;;;12.85;6.35;;;486.70;2380.80;;;;;;5091748;28;20027;-76
2021/09/27 00:12:10;;;;;;;16.67;6.30;;;486.60;2380.80;;;;;;5074545;28;20546;-76
2021/09/27 00:14:36;;;;;;;16.95;6.40;;;486.60;2380.80;;;;;;5064922;28;20112;-76
2021/09/27 00:17:06;;;;;;;9.38;6.63;;;486.60;2380.80;;;;;;5082926;28;20118;-76
2021/09/27 00:19:36;;;;;;;9.20;6.30;;;486.60;2380.80;;;;;;5078780;28;20112;-76
2021/09/27 00:22:04;;;;;;;8.43;6.57;;;486.60;2380.80;;;;;;5084239;28;20020;-77
2021/09/27 00:24:29;;;;;;;12.43;7.30;;;486.50;2380.80;;;;;;5075578;28;20020;-76
2021/09/27 00:26:55;;;;;;;10.93;7.55;;;486.50;2380.80;;;;;;5095515;28;20361;-77
2021/09/27 00:29:21;;;;;;;9.13;6.40;;;486.50;2380.80;;;;;;5094945;28;20089;-77
2021/09/27 00:31:46;;;;;;;12.02;6.60;;;486.50;2380.80;;;;;;5105745;28;20496;-77
2021/09/27 00:34:12;;;;;;;10.23;6.95;;;486.50;2380.80;;;;;;5094059;28;20044;-76
2021/09/27 00:36:38;;;;;;;12.93;6.55;;;486.50;2380.80;;;;;;5076997;28;20511;-77
2021/09/27 00:39:05;;;;;;;13.95;6.95;;;486.50;2380.80;;;;;;5076556;28;20373;-76
2021/09/27 00:41:32;;;;;;;12.88;7.50;;;486.50;2380.80;;;;;;5077036;28;20566;-76
2021/09/27 00:43:57;;;;;;;13.13;7.05;;;486.40;2380.80;;;;;;5076628;28;20500;-77
2021/09/27 00:46:27;;;;;;;12.15;7.53;;;486.50;2380.80;;;;;;5094548;28;20035;-77
2021/09/27 00:48:53;;;;;;;13.43;7.78;;;486.50;2380.80;;;;;;5095033;28;20358;-77
2021/09/27 00:51:35;;;;;;;13.88;7.72;;;486.50;2380.80;;;;;;5094417;28;20024;-77
2021/09/27 00:54:09;;;;;;;14.85;8.23;;;486.50;2380.80;;;;;;5095085;28;20055;-76
2021/09/27 00:56:46;;;;;;;12.52;7.68;;;486.60;2380.80;;;;;;5094298;28;20028;-76
2021/09/27 00:59:12;;;;;;;11.70;7.30;;;486.50;2380.80;;;;;;5076268;28;20024;-77
2021/09/27 01:01:39;;;;;;;11.93;7.63;;;486.50;2380.80;;;;;;5076598;28;20016;-77
2021/09/27 01:04:05;;;;;;;15.32;8.05;;;486.40;2380.80;;;;;;5094143;28;20091;-77
2021/09/27 01:06:43;;;;;;;15.00;8.68;;;461.70;2380.80;;;;;;5053114;28;20053;-77
2021/09/27 01:09:27;;;;;;;12.57;8.32;;;486.40;2380.80;;;;;;5054077;28;20048;-76
2021/09/27 01:12:15;;;;;;;14.43;8.32;;;486.50;2380.80;;;;;;5052439;28;20032;-77
2021/09/27 01:15:19;;;;;;;14.75;9.90;;;486.50;2380.80;;;;;;5053986;28;20062;-76
2021/09/27 01:17:59;;;;;;;14.73;9.95;;;486.60;2380.80;;;;;;4986454;28;20037;-77
2021/09/27 01:20:51;;;;;;;14.00;8.20;;;486.70;2380.80;;;;;;4987612;28;20031;-76
2021/09/27 01:23:52;;;;;;;14.15;8.77;;;486.70;2380.80;;;;;;4976163;28;20109;-77
2021/09/27 01:26:55;;;;;;;12.77;8.23;;;486.70;2380.80;;;;;;4915168;29;20509;-78
2021/09/27 01:29:48;;;;;;;14.43;8.35;;;486.80;2380.80;;;;;;4914211;29;20441;-77
2021/09/27 01:32:32;;;;;;;15.20;9.13;;;486.70;2380.80;;;;;;4914585;29;20047;-78
2021/09/27 01:35:10;;;;;;;10.98;8.60;;;486.70;2380.80;;;;;;4914239;29;20047;-78
2021/09/27 01:38:08;;;;;;;11.93;7.82;;;486.70;2380.80;;;;;;4914795;29;20076;-78
2021/09/27 01:40:44;;;;;;;13.18;8.73;;;486.70;2380.80;;;;;;4926674;29;20054;-78
2021/09/27 01:43:28;;;;;;;17.77;9.30;;;486.70;2380.80;;;;;;4915157;28;20024;-78
2021/09/27 01:46:20;;;;;;;20.50;9.40;;;486.60;2380.80;;;;;;4915352;29;20087;-78
2021/09/27 01:48:53;;;;;;;15.43;9.00;;;486.60;2380.80;;;;;;4907553;29;20036;-77
2021/09/27 01:51:44;;;;;;;14.82;10.27;;;486.60;2380.80;;;;;;4923906;28;20194;-77
2021/09/27 01:54:21;;;;;;;12.73;8.88;;;486.60;2380.80;;;;;;4950283;28;20038;-77
2021/09/27 01:56:51;;;;;;;13.23;10.00;;;486.50;2380.80;;;;;;4973299;28;20155;-78
2021/09/27 01:59:29;;;;;;;14.25;8.43;;;486.40;2380.80;;;;;;4968760;28;20042;-78
2021/09/27 02:02:06;;;;;;;22.85;9.57;;;461.70;2380.80;;;;;;4972018;28;20055;-76
2021/09/27 02:05:11;;;;;;;16.92;10.35;;;461.50;2380.80;;;;;;5051737;28;20047;-76
2021/09/27 02:07:52;;;;;;;13.18;9.45;;;461.50;2380.80;;;;;;5088527;28;20056;-76
2021/09/27 02:10:32;;;;;;;13.45;9.27;;;461.50;2380.80;;;;;;5087762;28;20035;-76
2021/09/27 02:13:10;;;;;;;17.58;10.48;;;461.50;2380.80;;;;;;5082347;28;20065;-76
2021/09/27 02:15:43;;;;;;;14.30;9.43;;;461.50;2380.80;;;;;;5075002;28;20047;-76
2021/09/27 02:18:31;;;;;;;15.93;9.68;;;461.60;2380.80;;;;;;5092761;28;20043;-76
2021/09/27 02:21:06;;;;;;;16.40;10.35;;;461.50;2380.80;;;;;;5082601;28;20495;-76
2021/09/27 02:23:46;;;;;;;18.73;9.93;;;461.50;2380.80;;;;;;5090203;28;20103;-76
2021/09/27 02:26:13;;;;;;;17.95;8.60;;;461.50;2380.80;;;;;;5092719;28;20024;-76
2021/09/27 02:28:39;;;;;;;16.02;10.57;;;461.50;2380.80;;;;;;5093065;28;20022;-76
2021/09/27 02:31:24;;;;;;;22.88;11.60;;;461.50;2380.80;;;;;;5092350;28;20024;-76
2021/09/27 02:34:13;;;;;;;16.88;10.65;;;461.50;2380.80;;;;;;5092670;28;20020;-76
2021/09/27 02:36:48;;;;;;;23.55;11.95;;;461.50;2380.80;;;;;;5078243;28;20044;-76
2021/09/27 02:39:28;;;;;;;17.83;11.30;;;461.60;2380.80;;;;;;5092726;28;20048;-75
2021/09/27 02:42:17;;;;;;;16.30;12.20;;;461.60;2380.80;;;;;;5090142;28;20016;-75
2021/09/27 02:44:45;;;;;;;23.13;13.60;;;461.60;2380.80;;;;;;5083599;28;20027;-76
2021/09/27 02:47:16;;;;;;;18.90;13.63;;;461.50;2380.80;;;;;;5073643;28;20032;-76
2021/09/27 02:49:45;;;;;;;24.20;15.07;;;461.60;2380.80;;;;;;5092281;28;20023;-76
2021/09/27 02:52:13;;;;;;;22.95;14.38;;;461.60;2380.80;;;;;;5092564;28;20024;-75
2021/09/27 02:54:48;;;;;;;21.10;15.10;;;461.50;2380.80;;;;;;5083002;28;20028;-75
2021/09/27 02:57:32;;;;;;;23.23;15.45;;;461.60;2380.80;;;;;;5088643;28;20031;-75
2021/09/27 03:00:00;;;;;;;20.15;12.63;;;461.60;2380.80;;;;;;5092549;28;20077;-75
2021/09/27 03:02:40;;;;;;;17.35;11.38;;;461.60;2380.80;;;;;;5073966;28;20051;-76
2021/09/27 03:05:38;;;;;;;18.75;11.35;;;461.60;2380.80;;;;;;5073771;28;20044;-76
2021/09/27 03:08:46;;;;;;;20.02;12.43;;;461.50;2380.80;;;;;;5076042;28;20074;-76
2021/09/27 03:11:27;;;;;;;;;;;461.50;2380.80;;;;;;5073235;28;20036;-76
2021/09/27 03:14:14;;;;;;;16.02;11.45;;;461.40;2380.80;;;;;;5073985;28;19904;-76
2021/09/27 03:16:54;;;;;;;16.80;11.00;;;461.40;2380.80;;;;;;5092059;28;20027;-76
2021/09/27 03:20:10;;;;;;;18.30;13.43;;;461.30;2380.80;;;;;;5091796;28;20027;-76
2021/09/27 03:23:05;;;;;;;16.75;11.38;;;461.40;2380.80;;;;;;4987414;28;20026;-76
2021/09/27 03:25:47;;;;;;;16.85;10.98;;;461.30;2380.80;;;;;;5004401;28;20768;-76
2021/09/27 03:28:28;;;;;;;19.10;11.45;;;461.30;2380.80;;;;;;4993806;28;20713;-76
2021/09/27 03:31:19;;;;;;;23.95;11.13;;;461.30;2380.80;;;;;;5002839;28;20446;-76
2021/09/27 03:33:59;;;;;;;18.60;11.52;;;461.10;2380.80;;;;;;4973885;28;20503;-77
2021/09/27 03:36:39;;;;;;;19.60;10.45;;;461.10;2380.80;;;;;;4990089;28;20042;-76
2021/09/27 03:39:27;;;;;;;18.52;10.82;;;461.10;2380.80;;;;;;4990300;28;20038;-76
2021/09/27 03:42:07;;;;;;;18.50;11.23;;;461.10;2380.80;;;;;;4990194;28;20503;-77
2021/09/27 03:44:51;;;;;;;14.93;11.23;;;461.10;2380.80;;;;;;4987382;28;20026;-77
2021/09/27 03:47:23;;;;;;;23.05;10.32;;;461.20;2380.80;;;;;;4974058;28;20037;-77
2021/09/27 03:49:58;;;;;;;19.13;11.50;;;461.30;2380.80;;;;;;4978501;28;20030;-76
2021/09/27 03:52:49;;;;;;;16.67;11.35;;;461.30;2380.80;;;;;;4973753;28;20042;-76
2021/09/27 03:55:27;;;;;;;15.27;10.73;;;461.30;2380.80;;;;;;4990424;28;20100;-76
2021/09/27 03:58:03;;;;;;;15.00;10.77;;;461.30;2380.80;;;;;;4996789;28;20029;-77
2021/09/27 04:00:39;;;;;;;17.23;10.65;;;461.30;2380.80;;;;;;5092192;28;20107;-76
2021/09/27 04:03:52;;;;;;;17.52;10.85;;;461.20;2380.80;;;;;;5074194;28;20081;-76
2021/09/27 04:06:49;;;;;;;13.85;9.80;;;461.20;2380.80;;;;;;5093112;28;20040;-75
2021/09/27 04:09:27;;;;;;;23.92;10.63;;;461.30;2380.80;;;;;;5082516;28;20059;-76
2021/09/27 04:11:55;;;;;;;20.85;11.30;;;461.20;2380.80;;;;;;5075467;28;20031;-76
2021/09/27 04:14:56;;;;;;;14.27;10.85;;;461.20;2380.80;;;;;;5073740;28;20488;-76
2021/09/27 04:17:56;;;;;;;24.30;11.43;;;461.30;2380.80;;;;;;5070792;28;20029;-76
2021/09/27 04:21:15;;;;;;;13.48;9.55;;;461.30;2380.80;;;;;;5068415;28;20115;-76
2021/09/27 04:23:52;;;;;;;23.85;9.43;;;461.40;2380.80;;;;;;4976742;28;20549;-76
2021/09/27 04:26:30;;;;;;;14.27;9.40;;;461.40;2380.80;;;;;;4991747;28;20026;-76
2021/09/27 04:29:07;;;;;;;16.63;10.18;;;461.50;2380.80;;;;;;4992812;28;20490;-76
2021/09/27 04:32:01;;;;;;;18.17;9.60;;;461.50;2380.80;;;;;;4976875;28;20122;-76
2021/09/27 04:34:45;;;;;;;13.48;9.10;;;461.60;2380.80;;;;;;4993263;28;20090;-76
2021/09/27 04:37:17;;;;;;;12.25;8.30;;;461.60;2380.80;;;;;;4993383;28;20058;-76
2021/09/27 04:39:45;;;;;;;14.25;8.93;;;461.70;2380.80;;;;;;4976502;28;20153;-76
2021/09/27 04:42:25;;;;;;;14.18;8.98;;;461.70;2380.80;;;;;;4976978;28;20042;-76
2021/09/27 04:44:56;;;;;;;14.02;8.40;;;486.40;2380.80;;;;;;4993039;28;20058;-76
2021/09/27 04:48:08;;;;;;;14.10;9.52;;;486.40;2380.80;;;;;;4992978;28;20073;-76
2021/09/27 04:51:12;;;;;;;10.18;8.10;;;486.50;2380.80;;;;;;4942083;28;20039;-76
2021/09/27 04:53:53;;;;;;;11.55;7.30;;;486.60;2380.80;;;;;;4950180;28;20073;-76
2021/09/27 04:56:44;;;;;;;12.77;8.45;;;486.60;2380.80;;;;;;4993005;28;20026;-76
2021/09/27 04:59:39;;;;;;;12.68;7.28;;;486.70;2380.80;;;;;;4992636;28;20042;-76
2021/09/27 05:02:40;;;;;;;13.35;8.05;;;486.70;2380.80;;;;;;4995275;28;20517;-76
2021/09/27 05:05:21;;;;;;;13.55;8.15;;;486.80;2380.80;;;;;;4982485;28;20078;-75
2021/09/27 05:07:59;;;;;;;11.50;7.95;;;486.90;2380.80;;;;;;4995851;28;20042;-74
2021/09/27 05:10:40;;;;;;;18.08;7.63;;;487.00;2380.80;;;;;;4997668;28;20109;-75
2021/09/27 05:13:06;;;;;;;13.70;7.47;;;487.00;2380.80;;;;;;5002801;28;20482;-74
2021/09/27 05:15:49;;;;;;;11.40;7.85;;;487.00;2380.80;;;;;;4993235;28;20045;-75
2021/09/27 05:18:36;;;;;;;13.57;9.48;;;487.10;2380.80;;;;;;4991011;28;20187;-75
2021/09/27 05:21:08;;;;;;;12.05;8.52;;;487.10;2380.80;;;;;;4999292;28;20666;-75
2021/09/27 05:23:48;;;;;;;9.20;7.95;;;487.10;2380.80;;;;;;4977780;28;20035;-75
2021/09/27 05:26:16;;;;;;;12.50;7.93;;;487.20;2380.80;;;;;;4977799;28;20022;-75
2021/09/27 05:29:00;;;;;;;11.60;7.32;;;487.30;2380.80;;;;;;5045580;28;20037;-77
2021/09/27 05:31:41;;;;;;;17.88;7.63;;;487.30;2380.80;;;;;;5062893;28;20381;-75
2021/09/27 05:34:35;;;;;;;12.43;6.57;;;512.00;2380.80;;;;;;5085069;28;20449;-75
2021/09/27 05:37:09;;;;;;;10.15;7.18;;;512.00;2380.80;;;;;;5088306;28;20039;-75
2021/09/27 05:40:09;;;;;;;10.82;7.40;;;512.10;2380.80;;;;;;5083421;28;20111;-75
2021/09/27 05:43:03;;;;;;;13.65;7.03;;;512.20;2380.80;;;;;;5088562;28;20048;-75
2021/09/27 05:46:03;;;;;;;13.52;7.57;;;512.30;2380.80;;;;;;5093750;28;20419;-75
2021/09/27 05:48:36;;;;;;;13.02;7.78;;;512.50;2380.80;;;;;;5080990;28;20035;-75
2021/09/27 05:51:37;;;;;;;22.13;15.00;;;512.50;2380.80;;;;;;5090767;28;20445;-75
2021/09/27 05:54:40;;;;;;;27.58;20.02;;;512.60;2380.80;;;;;;5059063;28;20093;-76
2021/09/27 05:57:28;;;;;;;39.13;24.73;;;512.70;2380.80;;;;;;5062762;28;20033;-75
2021/09/27 06:00:17;;;;;;;42.03;25.50;;;512.80;2380.80;;;;;;5084852;28;20035;-75
2021/09/27 06:02:45;;;;;;;25.17;20.58;;;512.90;2380.80;;;;;;5079707;28;20016;-75
2021/09/27 06:05:17;;;;;;;34.75;19.90;;;512.90;2380.80;;;;;;5088961;28;20389;-75
2021/09/27 06:08:01;;;;;;;24.48;18.33;;;512.90;2380.80;;;;;;5071861;28;20024;-76
2021/09/27 06:10:42;;;;;;;24.15;15.90;;;537.60;2406.40;;;;;;5065794;28;20357;-76
2021/09/27 06:13:16;;;;;;;19.15;14.82;;;537.70;2406.40;;;;;;5083564;28;20028;-76
2021/09/27 06:15:46;;;;;;;20.95;14.93;;;537.70;2406.40;;;;;;5084975;28;20020;-76
2021/09/27 06:18:19;;;;;;;18.60;13.25;;;537.60;2406.40;;;;;;5083349;28;20036;-76
2021/09/27 06:20:57;;;;;;;17.42;11.93;;;537.60;2406.40;;;;;;5088960;28;20023;-76
2021/09/27 06:23:45;;;;;;;14.55;8.40;;;512.90;2380.80;;;;;;5083626;28;20103;-75
2021/09/27 06:26:13;;;;;;;13.05;8.52;;;512.90;2380.80;;;;;;5082256;28;20103;-76
2021/09/27 06:29:12;;;;;;;13.20;8.15;;;537.60;2406.40;;;;;;5084518;28;20500;-76
2021/09/27 06:31:46;;;;;;;13.82;8.25;;;537.60;2406.40;;;;;;5086809;28;20035;-76
2021/09/27 06:34:25;;;;;;;17.73;8.73;;;537.60;2406.40;;;;;;5087192;28;20028;-76
2021/09/27 06:36:55;;;;;;;11.32;8.35;;;537.70;2406.40;;;;;;5083803;28;20041;-76
2021/09/27 06:39:26;;;;;;;11.63;7.68;;;537.80;2406.40;;;;;;5080507;28;20024;-76
2021/09/27 06:41:52;;;;;;;11.05;7.65;;;537.80;2406.40;;;;;;5072464;28;20020;-76
2021/09/27 06:44:19;;;;;;;13.48;6.93;;;538.00;2406.40;;;;;;5087117;28;20031;-76
2021/09/27 06:46:45;;;;;;;14.40;8.43;;;538.00;2406.40;;;;;;5089732;28;20024;-76
2021/09/27 06:49:11;;;;;;;13.35;7.05;;;538.10;2406.40;;;;;;5085184;28;20021;-76
2021/09/27 06:51:41;;;;;;;11.30;7.63;;;538.20;2406.40;;;;;;5066953;28;20082;-76
2021/09/27 06:54:18;;;;;;;13.10;8.05;;;538.20;2406.40;;;;;;5090469;28;20028;-76
2021/09/27 06:56:45;;;;;;;15.23;9.25;;;538.10;2406.40;;;;;;5090249;28;20036;-76
2021/09/27 06:59:13;;;;;;;13.65;8.23;;;538.30;2406.40;;;;;;5089866;28;20109;-76
2021/09/27 07:01:39;;;;;;;19.88;8.95;;;538.40;2406.40;;;;;;5068716;28;20408;-76
2021/09/27 07:04:05;;;;;;;15.70;8.40;;;538.50;2406.40;;;;;;5086582;28;20031;-76
2021/09/27 07:06:31;;;;;;;16.00;10.13;;;538.40;2406.40;;;;;;5086732;28;20059;-76
2021/09/27 07:08:57;;;;;;;15.70;8.90;;;538.40;2406.40;;;;;;5081993;28;20029;-76
2021/09/27 07:11:23;;;;;;;17.50;9.50;;;538.30;2406.40;;;;;;5076105;28;20024;-76
2021/09/27 07:13:50;;;;;;;21.27;17.48;;;538.40;2406.40;;;;;;5058798;28;20146;-76
2021/09/27 07:16:16;;;;;;;23.45;17.45;;;563.20;2432.00;;;;;;5056949;28;20488;-76
2021/09/27 07:18:42;;;;;;;13.50;8.70;;;563.20;2432.00;;;;;;5080248;28;20536;-76
2021/09/27 07:21:10;;;;;;;18.20;8.13;;;563.20;2432.00;;;;;;5086769;28;20020;-76
2021/09/27 07:23:38;;;;;;;23.83;18.13;;;563.20;2432.00;;;;;;5073529;28;20495;-76
2021/09/27 07:26:10;;;;;;;15.30;9.88;;;563.20;2432.00;;;;;;5073613;28;20044;-76
2021/09/27 07:28:37;;;;;;;17.63;10.52;;;563.30;2432.00;;;;;;5091236;28;20081;-76
2021/09/27 07:31:03;;;;;;;19.98;12.30;;;563.30;2432.00;;;;;;5087805;28;20031;-76
2021/09/27 07:33:29;;;;;;;15.88;7.82;;;563.30;2432.00;;;;;;5091336;28;20046;-76
2021/09/27 07:35:56;;;;;;;26.40;13.13;;;563.20;2432.00;;;;;;5070801;28;20032;-76
2021/09/27 07:38:25;;;;;;;14.40;8.23;;;563.20;2432.00;;;;;;5087073;28;20438;-76
2021/09/27 07:40:53;;;;;;;11.95;7.05;;;563.20;2432.00;;;;;;5087992;28;20020;-76
2021/09/27 07:43:19;;;;;;;12.68;7.28;;;563.20;2432.00;;;;;;5069762;28;20013;-76
2021/09/27 07:45:46;;;;;;;16.52;9.65;;;563.20;2432.00;;;;;;5086561;28;20028;-76
2021/09/27 07:48:13;;;;;;;15.70;8.68;;;563.20;2432.00;;;;;;5088688;28;20025;-76
2021/09/27 07:50:45;;;;;;;13.93;9.38;;;563.20;2432.00;;;;;;5082589;28;20024;-76
2021/09/27 07:53:12;;;;;;;15.80;8.90;;;563.20;2432.00;;;;;;5085087;28;20495;-76
2021/09/27 07:55:38;;;;;;;17.35;10.82;;;563.20;2432.00;;;;;;5081488;28;20024;-76
2021/09/27 07:58:04;;;;;;;20.00;13.48;;;538.50;2406.40;;;;;;5087374;28;20021;-76
2021/09/27 08:00:31;;;;;;;27.98;17.45;;;538.40;2406.40;;;;;;5069773;28;20040;-76
2021/09/27 08:02:57;;;;;;;29.98;15.50;;;538.40;2406.40;;;;;;5084822;28;20127;-76
2021/09/27 08:05:26;;;;;;;22.80;12.98;;;538.50;2406.40;;;;;;5064923;28;20543;-76
2021/09/27 08:07:52;;;;;;;25.30;14.50;;;563.20;2432.00;;;;;;5090888;28;20039;-76
2021/09/27 08:10:20;;;;;;;16.00;10.77;;;563.20;2432.00;;;;;;5090711;28;20028;-76
2021/09/27 08:12:47;;;;;;;17.02;9.68;;;538.50;2406.40;;;;;;5071073;28;20036;-76
2021/09/27 08:15:20;;;;;;;19.58;14.65;;;538.40;2406.40;;;;;;5084457;28;20055;-76
2021/09/27 08:17:48;;;;;;;23.27;14.38;;;538.30;2406.40;;;;;;5073223;28;20020;-76
2021/09/27 08:20:17;;;;;;;19.55;12.07;;;538.20;2406.40;;;;;;5068227;28;20542;-76
2021/09/27 08:22:45;;;;;;;17.08;12.35;;;538.20;2406.40;;;;;;5067361;28;20032;-76
2021/09/27 08:25:12;;;;;;;19.42;11.75;;;538.10;2406.40;;;;;;5063992;28;20020;-76
2021/09/27 08:27:38;;;;;;;19.10;9.43;;;538.10;2406.40;;;;;;5070826;28;20519;-76
2021/09/27 08:30:09;;;;;;;19.77;10.77;;;538.10;2406.40;;;;;;5065540;28;20031;-75
2021/09/27 08:32:35;;;;;;;11.98;9.88;;;538.30;2406.40;;;;;;5066102;28;20635;-76
2021/09/27 08:35:01;;;;;;;18.52;11.65;;;538.30;2406.40;;;;;;5091009;28;20103;-76
2021/09/27 08:37:27;;;;;;;12.70;8.65;;;538.40;2406.40;;;;;;5082436;28;20037;-75
2021/09/27 08:39:53;;;;;;;13.13;9.30;;;563.20;2432.00;;;;;;5072130;28;20050;-75
2021/09/27 08:42:36;;;;;;;16.63;11.18;;;563.20;2432.00;;;;;;5071879;28;20074;-75
2021/09/27 08:45:11;;;;;;;15.68;10.95;;;563.50;2432.00;;;;;;5087557;28;20028;-75
2021/09/27 08:47:44;;;;;;;19.17;12.32;;;563.70;2432.00;;;;;;5068564;28;20074;-74
2021/09/27 08:50:39;;;;;;;18.40;9.75;;;564.00;2432.00;;;;;;5067551;28;20396;-75
2021/09/27 08:53:28;;;;;;;17.60;11.60;;;588.80;2432.00;;;;;;5083957;28;20024;-75
2021/09/27 08:56:21;;;;;;;21.77;12.05;;;589.10;2432.00;;;;;;5082020;28;20044;-75
2021/09/27 08:58:53;;;;;;;23.35;10.82;;;589.40;2432.00;;;;;;5031335;28;20041;-75
2021/09/27 09:01:49;;;;;;;18.30;10.60;;;614.50;2432.00;;;;;;5013550;28;20108;-75
2021/09/27 09:04:25;;;;;;;19.02;11.35;;;615.00;2432.00;;;;;;5013240;28;20065;-77
2021/09/27 09:07:00;;;;;;;16.52;11.30;;;615.20;2432.00;;;;;;5030256;28;20041;-76
2021/09/27 09:09:41;;;;;;;21.73;10.68;;;640.10;2432.00;;;;;;5024515;28;20573;-76
2021/09/27 09:12:30;;;;;;;18.98;10.25;;;640.30;2432.00;;;;;;5011650;28;20049;-75
2021/09/27 09:15:12;;;;;;;23.25;12.23;;;666.10;2432.00;;;;;;5031681;28;20525;-76
2021/09/27 09:17:51;;;;;;;21.42;11.13;;;691.70;2432.00;;;;;;5042840;28;20497;-75
2021/09/27 09:20:45;;;;;;;20.60;10.38;;;717.40;2432.00;;;;;;5028254;28;20032;-76
2021/09/27 09:23:22;;;;;;;17.02;9.20;;;742.90;2432.00;;;;;;4969253;28;20090;-75
2021/09/27 09:25:48;;;;;;;15.90;9.23;;;768.00;2432.00;;;;;;4963062;28;20026;-76
2021/09/27 09:28:14;;;;;;;12.23;9.07;;;768.60;2329.60;;;;;;4972352;28;20506;-75
2021/09/27 09:30:44;;;;;;;15.40;9.57;;;768.80;2278.40;;;;;;4972528;28;20030;-76
2021/09/27 09:33:41;;;;;;;16.13;10.23;;;768.60;2176.00;;;;;;4966071;28;20031;-76
2021/09/27 09:36:10;;;;;;;12.98;8.93;;;794.10;2099.20;;;;;;5007972;28;20041;-75
2021/09/27 09:38:38;;;;;;;14.05;8.73;;;794.00;2073.60;;;;;;5030688;28;20516;-75
2021/09/27 09:41:05;;;;;;;13.38;8.70;;;794.00;2048.00;;;;;;5006295;28;20046;-76
2021/09/27 09:43:34;;;;;;;18.30;9.25;;;794.30;1996.80;;;;;;5030458;28;20064;-75
2021/09/27 09:46:09;;;;;;;13.40;9.15;;;819.60;1920.00;;;;;;5030376;28;20025;-75
2021/09/27 09:48:38;;;;;;;22.40;11.67;;;820.10;1894.40;;;;;;5025466;28;20084;-76
2021/09/27 09:51:33;;;;;;;15.70;8.77;;;845.00;1843.20;;;;;;5030648;28;20277;-76
2021/09/27 09:54:21;;;;;;;28.23;12.18;;;845.30;1792.00;;;;;;4945975;28;20063;-76
2021/09/27 09:57:20;;;;;;;17.80;10.68;;;845.40;1740.80;;;;;;4941475;29;20030;-76
2021/09/27 10:00:31;;;;;;;25.92;15.88;;;870.40;1689.60;;;;;;4950694;28;20683;-75
2021/09/27 10:02:57;;;;;;;19.13;10.85;;;870.80;1638.40;;;;;;4990437;28;20030;-75
2021/09/27 10:05:34;;;;;;;16.80;9.38;;;871.20;1536.00;;;;;;4978198;28;20050;-75
2021/09/27 10:08:04;;;;;;;10.77;7.95;;;871.30;1484.80;;;;;;4988908;28;20030;-74
2021/09/27 10:10:37;;;;;;;14.18;7.90;;;896.00;1459.20;;;;;;4986217;28;20192;-75
2021/09/27 10:13:43;;;;;;;13.98;9.45;;;896.30;1433.60;;;;;;4990671;28;20018;-74
2021/09/27 10:16:14;;;;;;;16.38;11.30;;;896.30;1433.60;;;;;;4969039;28;20495;-74
2021/09/27 10:18:44;;;;;;;9.75;8.05;;;896.30;1382.40;;;;;;4970235;28;20508;-76
2021/09/27 10:21:18;;;;;;;14.48;7.00;;;896.40;1356.80;;;;;;4970084;28;20122;-77
2021/09/27 10:23:48;;;;;;;8.95;6.10;;;896.70;1331.20;;;;;;4954035;28;20111;-74
2021/09/27 10:26:32;;;;;;;12.82;7.10;;;896.90;1331.20;;;;;;4951580;28;20027;-75
2021/09/27 10:29:20;;;;;;;7.88;7.00;;;921.60;1331.20;;;;;;4970988;28;20027;-74
2021/09/27 10:32:10;;;;;;;10.55;6.65;;;922.10;1305.60;;;;;;4996439;28;20084;-74
2021/09/27 10:34:35;;;;;;;11.27;6.15;;;922.00;1305.60;;;;;;5003785;28;20046;-74
2021/09/27 10:37:10;;;;;;;12.23;5.95;;;922.40;1280.00;;;;;;5011775;28;20061;-74
2021/09/27 10:39:36;;;;;;;14.18;6.15;;;922.20;1331.20;;;;;;4993162;28;20030;-74
2021/09/27 10:42:08;;;;;;;9.30;6.50;;;922.10;1305.60;;;;;;5011074;28;20030;-74
2021/09/27 10:44:47;;;;;;;9.65;6.85;;;922.30;1280.00;;;;;;5010089;28;20030;-74
2021/09/27 10:47:19;;;;;;;12.02;6.30;;;922.40;1254.40;;;;;;5002173;28;20960;-74
2021/09/27 10:50:00;;;;;;;12.65;6.25;;;947.20;1254.40;;;;;;5007947;28;20113;-75
2021/09/27 10:52:42;;;;;;;10.55;5.63;;;947.70;1254.40;;;;;;5003545;28;20029;-74
2021/09/27 10:55:33;;;;;;;9.20;6.88;;;947.50;1254.40;;;;;;5077512;28;20025;-74
2021/09/27 10:58:03;;;;;;;10.52;6.47;;;947.60;1228.80;;;;;;5076879;28;20035;-74
2021/09/27 11:00:50;;;;;;;11.75;7.03;;;947.70;1203.20;;;;;;5071316;28;20500;-74
2021/09/27 11:03:22;;;;;;;11.82;6.70;;;948.00;1203.20;;;;;;5081400;28;20016;-74
2021/09/27 11:06:19;;;;;;;15.25;8.27;;;972.90;1203.20;;;;;;5071448;28;20554;-74
2021/09/27 11:08:44;;;;;;;7.93;6.10;;;947.90;1203.20;;;;;;5064298;28;20127;-74
2021/09/27 11:11:25;;;;;;;12.60;6.03;;;948.10;1177.60;;;;;;5065498;28;20103;-74
2021/09/27 11:13:51;;;;;;;12.88;7.28;;;973.30;1203.20;;;;;;5089718;28;20046;-74
2021/09/27 11:16:23;;;;;;;13.90;8.82;;;973.50;1203.20;;;;;;5090134;28;20531;-75
2021/09/27 11:19:06;;;;;;;13.90;8.20;;;998.50;1203.20;;;;;;5071610;28;20499;-74
2021/09/27 11:21:35;;;;;;;11.40;7.28;;;973.40;1177.60;;;;;;5089889;28;20409;-74
2021/09/27 11:24:21;;;;;;;14.02;8.25;;;973.50;1177.60;;;;;;5089974;28;20024;-74
2021/09/27 11:27:16;;;;;;;21.13;9.15;;;948.10;1177.60;;;;;;5071529;28;20046;-74
2021/09/27 11:30:19;;;;;;;12.45;7.22;;;948.00;1177.60;;;;;;5058295;28;20036;-75
2021/09/27 11:32:57;;;;;;;11.70;6.63;;;948.00;1177.60;;;;;;5090897;28;20126;-74
2021/09/27 11:35:44;;;;;;;14.00;6.95;;;947.90;1177.60;;;;;;5067852;28;20051;-74
2021/09/27 11:38:33;;;;;;;13.57;6.35;;;973.40;1177.60;;;;;;5076518;28;20039;-74
2021/09/27 11:41:11;;;;;;;11.73;6.90;;;998.40;1177.60;;;;;;5071491;28;20119;-75
2021/09/27 11:43:48;;;;;;;11.40;6.63;;;973.70;1152.00;;;;;;5089520;28;20082;-74
2021/09/27 11:46:28;;;;;;;10.73;6.75;;;998.40;1177.60;;;;;;5089303;28;20023;-75
2021/09/27 11:49:18;;;;;;;12.75;6.93;;;973.30;1177.60;;;;;;5067667;28;20447;-75
2021/09/27 11:52:03;;;;;;;10.15;6.00;;;973.30;1177.60;;;;;;5056693;28;20443;-75
2021/09/27 11:54:51;;;;;;;9.77;6.82;;;973.30;1152.00;;;;;;5068903;28;20111;-75
2021/09/27 11:57:44;;;;;;;12.30;6.95;;;972.90;1177.60;;;;;;5086756;28;20103;-75
2021/09/27 12:00:22;;;;;;;13.40;6.82;;;973.20;1177.60;;;;;;5027244;28;20029;-75
2021/09/27 12:03:24;;;;;;;12.65;7.28;;;973.70;1152.00;;;;;;5027043;28;20485;-76
2021/09/27 12:05:55;;;;;;;8.73;6.57;;;973.70;1152.00;;;;;;5009736;28;20041;-75
2021/09/27 12:08:30;;;;;;;11.05;7.70;;;973.70;1152.00;;;;;;5010478;28;20410;-75
2021/09/27 12:10:58;;;;;;;11.07;9.07;;;998.50;1177.60;;;;;;5027350;28;20554;-75
2021/09/27 12:13:28;;;;;;;14.50;9.95;;;998.40;1177.60;;;;;;5012538;28;20037;-75
2021/09/27 12:15:58;;;;;;;13.27;8.30;;;998.90;1152.00;;;;;;5027127;28;20029;-75
2021/09/27 12:18:37;;;;;;;14.90;9.43;;;999.10;1126.40;;;;;;5026622;28;20141;-75
2021/09/27 12:21:26;;;;;;;21.80;12.43;;;999.00;1152.00;;;;;;5030283;28;20042;-75
2021/09/27 12:23:56;;;;;;;12.27;7.03;;;999.00;1126.40;;;;;;4972025;28;20586;-75
2021/09/27 12:26:28;;;;;;;14.30;9.18;;;999.00;1126.40;;;;;;4966585;28;20070;-75
2021/09/27 12:29:09;;;;;;;12.95;9.57;;;999.00;1126.40;;;;;;4969254;28;20035;-75
2021/09/27 12:31:34;;;;;;;10.18;7.18;;;998.90;1152.00;;;;;;4963212;28;20042;-75
2021/09/27 12:34:15;;;;;;;12.13;7.72;;;998.90;1152.00;;;;;;4962518;28;20034;-75
2021/09/27 12:36:42;;;;;;;12.38;7.78;;;999.00;1152.00;;;;;;4976859;28;20073;-75
2021/09/27 12:39:08;;;;;;;15.77;8.52;;;999.20;1126.40;;;;;;4990267;28;20446;-76
2021/09/27 12:41:35;;;;;;;16.10;9.80;;;999.00;1126.40;;;;;;4989402;28;20044;-76
2021/09/27 12:44:25;;;;;;;17.08;9.00;;;998.90;1152.00;;;;;;4995217;28;20526;-76
2021/09/27 12:46:53;;;;;;;15.10;8.65;;;999.00;1126.40;;;;;;4976213;28;20030;-76
2021/09/27 12:49:41;;;;;;;11.15;8.20;;;999.00;1152.00;;;;;;4989604;28;20018;-76
2021/09/27 12:52:16;;;;;;;15.82;8.45;;;998.80;1177.60;;;;;;4986962;28;20046;-76
2021/09/27 12:54:50;;;;;;;16.00;11.20;;;998.70;1177.60;;;;;;4988704;28;21665;-76
2021/09/27 12:57:39;;;;;;;13.18;9.40;;;998.60;1152.00;;;;;;4974744;28;20035;-77
2021/09/27 13:00:25;;;;;;;15.25;9.20;;;998.60;1152.00;;;;;;4983575;28;20036;-77